createdAt,value
2022-11-19T05:15:35.117Z,47.70
2022-11-19T05:18:02.164Z,47.67
2022-11-19T05:20:28.667Z,47.06
2022-11-19T05:22:55.121Z,46.98
2022-11-19T05:25:21.635Z,46.58
2022-11-19T05:27:48.147Z,47.49
2022-11-19T05:30:16.263Z,46.50
2022-11-19T05:32:42.850Z,46.90
2022-11-19T05:35:09.763Z,47.55
2022-11-19T05:37:36.298Z,47.55
2022-11-19T05:40:03.167Z,47.11
2022-11-19T05:42:29.683Z,47.19
2022-11-19T05:44:56.241Z,47.09
2022-11-19T05:47:22.760Z,46.47
2022-11-19T05:49:49.276Z,46.36
2022-11-19T05:52:15.776Z,46.99
2022-11-19T05:54:42.293Z,46.64
2022-11-19T05:57:08.741Z,46.62
2022-11-19T05:59:38.447Z,46.81
2022-11-19T06:02:07.380Z,46.72
2022-11-19T06:04:34.016Z,46.63
2022-11-19T06:07:00.488Z,45.95
2022-11-19T06:09:26.974Z,46.57
2022-11-19T06:11:53.499Z,47.06
2022-11-19T06:14:22.204Z,46.49
2022-11-19T06:16:51.311Z,46.72
2022-11-19T06:19:19.087Z,46.28
2022-11-19T06:21:46.115Z,46.03
2022-11-19T06:24:12.987Z,47.23
2022-11-19T06:26:40.395Z,45.82
2022-11-19T06:29:07.016Z,45.83
2022-11-19T06:31:39.425Z,46.08
2022-11-19T06:34:06.270Z,46.72
2022-11-19T06:36:41.961Z,46.10
2022-11-19T06:39:10.392Z,47.34
2022-11-19T06:41:36.865Z,46.14
2022-11-19T06:44:03.763Z,46.33
2022-11-19T06:46:30.305Z,47.51
2022-11-19T06:48:59.281Z,46.32
2022-11-19T06:51:28.509Z,46.18
2022-11-19T06:53:54.973Z,45.02
2022-11-19T06:56:21.466Z,45.99
2022-11-19T06:58:47.981Z,46.35
2022-11-19T07:01:15.226Z,47.03
2022-11-19T07:03:44.822Z,46.49
2022-11-19T07:06:11.279Z,46.91
2022-11-19T07:08:39.744Z,47.79
2022-11-19T07:11:25.752Z,46.60
2022-11-19T07:14:00.125Z,46.80
2022-11-19T07:16:31.816Z,46.34
2022-11-19T07:19:04.805Z,47.13
2022-11-19T07:21:32.602Z,46.68
2022-11-19T07:24:00.457Z,46.93
2022-11-19T07:26:28.097Z,47.22
2022-11-19T07:28:54.559Z,47.16
2022-11-19T07:31:21.183Z,46.89
2022-11-19T07:33:47.611Z,47.05
2022-11-19T07:36:18.177Z,46.92
2022-11-19T07:38:46.205Z,47.09
2022-11-19T07:41:31.855Z,47.06
2022-11-19T07:43:58.305Z,47.42
2022-11-19T07:46:24.727Z,47.18
2022-11-19T07:48:55.600Z,47.52
2022-11-19T07:51:23.293Z,46.58
2022-11-19T07:53:50.369Z,47.62
2022-11-19T07:56:17.496Z,47.09
2022-11-19T07:58:44.117Z,47.22
2022-11-19T08:01:14.894Z,46.86
2022-11-19T08:03:42.829Z,47.02
2022-11-19T08:06:10.077Z,47.06
2022-11-19T08:08:36.543Z,48.77
2022-11-19T08:11:08.603Z,47.97
2022-11-19T08:13:36.362Z,47.67
2022-11-19T08:16:04.590Z,46.93
2022-11-19T08:18:31.663Z,47.23
2022-11-19T08:21:09.956Z,47.00
2022-11-19T08:23:37.874Z,47.07
2022-11-19T08:26:07.449Z,47.55
2022-11-19T08:28:34.399Z,48.19
2022-11-19T08:31:08.696Z,46.40
2022-11-19T08:33:36.314Z,46.89
2022-11-19T08:36:03.512Z,46.83
2022-11-19T08:38:32.338Z,47.35
2022-11-19T08:41:20.943Z,46.91
2022-11-19T08:43:47.441Z,46.50
2022-11-19T08:46:13.883Z,47.72
2022-11-19T08:48:40.385Z,46.69
2022-11-19T08:51:07.939Z,46.87
2022-11-19T08:53:34.448Z,46.54
2022-11-19T08:56:00.966Z,46.08
2022-11-19T08:58:27.620Z,46.63
2022-11-19T09:00:55.092Z,46.89
2022-11-19T09:03:21.681Z,46.33
2022-11-19T09:05:48.349Z,46.73
2022-11-19T09:08:14.940Z,46.60
2022-11-19T09:10:41.893Z,46.44
2022-11-19T09:13:08.369Z,46.80
2022-11-19T09:15:35.451Z,47.03
2022-11-19T09:18:01.899Z,46.37
2022-11-19T09:20:28.338Z,46.21
2022-11-19T09:22:54.849Z,46.51
2022-11-19T09:25:21.306Z,47.01
2022-11-19T09:27:47.782Z,47.13
2022-11-19T09:30:14.370Z,47.98
2022-11-19T09:32:40.810Z,47.07
2022-11-19T09:35:07.632Z,47.45
2022-11-19T09:37:35.744Z,46.79
2022-11-19T09:40:02.680Z,46.11
2022-11-19T09:42:39.598Z,46.00
2022-11-19T09:45:18.986Z,45.83
2022-11-19T09:47:58.275Z,45.74
2022-11-19T09:50:29.517Z,46.14
2022-11-19T09:53:07.266Z,47.05
2022-11-19T09:55:41.415Z,45.28
2022-11-19T09:58:21.740Z,44.34
2022-11-19T10:00:48.516Z,44.65
2022-11-19T10:03:27.420Z,44.46
2022-11-19T10:05:59.580Z,44.63
2022-11-19T10:08:54.508Z,44.59
2022-11-19T10:11:50.613Z,45.05
2022-11-19T10:14:48.183Z,44.83
2022-11-19T10:17:48.859Z,44.36
2022-11-19T10:20:18.294Z,44.77
2022-11-19T10:23:12.532Z,45.25
2022-11-19T10:25:44.071Z,45.36
2022-11-19T10:28:20.963Z,43.87
2022-11-19T10:30:55.896Z,45.01
2022-11-19T10:33:49.625Z,45.78
2022-11-19T10:36:23.795Z,44.96
2022-11-19T10:39:07.357Z,43.86
2022-11-19T10:41:41.782Z,44.34
2022-11-19T10:44:37.072Z,44.71
2022-11-19T10:47:05.696Z,45.34
2022-11-19T10:49:37.857Z,44.10
2022-11-19T10:52:05.697Z,44.74
2022-11-19T10:54:33.982Z,44.39
2022-11-19T10:57:00.611Z,43.55
2022-11-19T10:59:30.605Z,43.19
2022-11-19T11:02:15.632Z,44.41
2022-11-19T11:05:01.444Z,44.10
2022-11-19T11:07:50.169Z,44.57
2022-11-19T11:10:49.884Z,43.77
2022-11-19T11:13:37.080Z,43.28
2022-11-19T11:16:09.990Z,42.93
2022-11-19T11:18:40.632Z,42.87
2022-11-19T11:21:20.937Z,43.17
2022-11-19T11:23:53.703Z,43.21
2022-11-19T11:26:26.000Z,42.92
2022-11-19T11:29:14.218Z,42.40
2022-11-19T11:31:43.399Z,43.09
2022-11-19T11:34:42.156Z,43.16
2022-11-19T11:37:10.855Z,42.76
2022-11-19T11:39:40.375Z,42.82
2022-11-19T11:42:17.434Z,42.34
2022-11-19T11:44:52.184Z,42.63
2022-11-19T11:47:20.470Z,43.21
2022-11-19T11:49:55.831Z,42.20
2022-11-19T11:52:34.142Z,42.01
2022-11-19T11:55:03.843Z,42.75
2022-11-19T11:57:35.915Z,42.16
2022-11-19T12:00:24.494Z,43.26
2022-11-19T12:03:22.255Z,43.05
2022-11-19T12:06:17.511Z,42.33
2022-11-19T12:09:09.714Z,42.13
2022-11-19T12:11:56.123Z,41.90
2022-11-19T12:14:47.055Z,43.83
2022-11-19T12:17:22.480Z,42.12
2022-11-19T12:20:12.956Z,42.76
2022-11-19T12:23:11.924Z,42.21
2022-11-19T12:26:04.444Z,41.66
2022-11-19T12:29:01.398Z,42.06
2022-11-19T12:31:49.195Z,42.88
2022-11-19T12:35:00.354Z,42.78
2022-11-19T12:37:29.402Z,42.41
2022-11-19T12:40:20.378Z,43.55
2022-11-19T12:43:14.207Z,43.49
2022-11-19T12:46:03.208Z,42.73
2022-11-19T12:48:50.949Z,43.09
2022-11-19T12:51:48.382Z,43.35
2022-11-19T12:54:48.828Z,42.54
2022-11-19T12:57:34.184Z,43.14
2022-11-19T13:00:23.697Z,43.21
2022-11-19T13:02:50.181Z,42.79
2022-11-19T13:05:51.170Z,43.47
2022-11-19T13:08:35.966Z,43.32
2022-11-19T13:11:21.654Z,43.82
2022-11-19T13:13:55.420Z,42.77
2022-11-19T13:16:24.618Z,42.95
2022-11-19T13:18:54.449Z,42.84
2022-11-19T13:21:41.752Z,42.98
2022-11-19T13:24:17.405Z,42.87
2022-11-19T13:26:43.993Z,43.43
2022-11-19T13:29:27.706Z,42.28
2022-11-19T13:32:06.938Z,42.37
2022-11-19T13:34:45.275Z,41.94
2022-11-19T13:37:27.429Z,42.77
2022-11-19T13:40:02.418Z,42.45
2022-11-19T13:43:04.121Z,42.45
2022-11-19T13:45:38.658Z,42.22
2022-11-19T13:48:21.916Z,42.91
2022-11-19T13:50:52.073Z,42.53
2022-11-19T13:53:34.151Z,42.03
2022-11-19T13:56:01.369Z,42.45
2022-11-19T13:58:40.305Z,42.42
2022-11-19T14:01:08.274Z,43.48
2022-11-19T14:03:38.145Z,43.21
2022-11-19T14:06:46.220Z,43.00
2022-11-19T14:09:24.493Z,42.37
2022-11-19T14:12:25.219Z,42.61
2022-11-19T14:15:38.505Z,43.27
2022-11-19T14:18:40.402Z,43.51
2022-11-19T14:21:54.802Z,43.27
2022-11-19T14:24:45.892Z,43.73
2022-11-19T14:27:23.302Z,43.60
2022-11-19T14:29:49.792Z,43.73
2022-11-19T14:32:16.184Z,42.87
2022-11-19T14:34:47.715Z,42.92
2022-11-19T14:37:25.925Z,42.62
2022-11-19T14:40:23.139Z,42.94
2022-11-19T14:43:20.698Z,43.04
2022-11-19T14:46:05.515Z,42.49
2022-11-19T14:48:33.847Z,42.67
2022-11-19T14:51:10.497Z,42.00
2022-11-19T14:53:52.573Z,42.35
2022-11-19T14:56:21.957Z,41.33
2022-11-19T14:59:03.358Z,42.51
2022-11-19T15:01:30.157Z,42.40
2022-11-19T15:04:03.778Z,42.72
2022-11-19T15:06:36.762Z,42.34
2022-11-19T15:09:03.723Z,42.21
2022-11-19T15:11:52.019Z,41.76
2022-11-19T15:14:27.819Z,42.33
2022-11-19T15:16:56.154Z,42.37
2022-11-19T15:19:36.863Z,42.48
2022-11-19T15:22:38.862Z,42.18
2022-11-19T15:25:19.134Z,41.80
2022-11-19T15:28:04.423Z,42.08
2022-11-19T15:30:49.763Z,41.73
2022-11-19T15:33:52.183Z,42.21
2022-11-19T15:36:31.341Z,42.57
2022-11-19T15:39:03.504Z,42.40
2022-11-19T15:41:38.744Z,42.63
2022-11-19T15:44:12.422Z,42.12
2022-11-19T15:47:06.961Z,41.99
2022-11-19T15:49:39.743Z,42.73
2022-11-19T15:52:41.482Z,42.18
2022-11-19T15:55:20.305Z,41.71
2022-11-19T15:57:51.168Z,41.39
2022-11-19T16:00:21.944Z,41.52
2022-11-19T16:02:51.447Z,41.63
2022-11-19T16:05:30.527Z,41.02
2022-11-19T16:08:03.313Z,41.33
2022-11-19T16:10:34.203Z,41.00
2022-11-19T16:13:39.544Z,41.26
2022-11-19T16:16:40.845Z,40.45
2022-11-19T16:19:07.313Z,41.10
2022-11-19T16:21:38.990Z,41.13
2022-11-19T16:24:32.377Z,40.99
2022-11-19T16:27:00.995Z,41.56
2022-11-19T16:29:27.713Z,41.14
2022-11-19T16:31:59.475Z,41.39
2022-11-19T16:34:36.734Z,41.58
2022-11-19T16:37:03.663Z,41.05
2022-11-19T16:39:32.497Z,40.90
2022-11-19T16:42:16.865Z,40.55
2022-11-19T16:44:47.943Z,40.51
2022-11-19T16:47:29.817Z,41.57
2022-11-19T16:50:27.329Z,40.94
2022-11-19T16:52:54.490Z,40.93
2022-11-19T16:55:24.211Z,40.95
2022-11-19T16:57:53.258Z,41.50
2022-11-19T17:00:31.721Z,41.42
2022-11-19T17:02:58.228Z,41.16
2022-11-19T17:05:28.596Z,41.46
2022-11-19T17:08:18.293Z,41.88
2022-11-19T17:10:45.019Z,41.37
2022-11-19T17:13:20.575Z,41.00
2022-11-19T17:15:49.092Z,41.38
2022-11-19T17:18:17.566Z,40.88
2022-11-19T17:20:43.955Z,40.70
2022-11-19T17:23:46.852Z,41.27
2022-11-19T17:26:19.451Z,40.99
2022-11-19T17:28:49.676Z,40.75
2022-11-19T17:31:26.155Z,41.40
2022-11-19T17:34:04.906Z,41.99
2022-11-19T17:36:31.391Z,41.39
2022-11-19T17:38:57.867Z,41.22
2022-11-19T17:41:45.587Z,41.32
2022-11-19T17:44:31.837Z,41.43
2022-11-19T17:46:58.967Z,41.28
2022-11-19T17:49:25.423Z,41.56
2022-11-19T17:51:52.480Z,40.52
2022-11-19T17:54:19.646Z,41.22
2022-11-19T17:56:46.473Z,41.03
2022-11-19T17:59:12.911Z,41.67
2022-11-19T18:01:39.481Z,41.54
2022-11-19T18:04:06.053Z,40.94
2022-11-19T18:06:33.573Z,41.59
2022-11-19T18:08:59.992Z,41.78
2022-11-19T18:11:26.723Z,41.67
2022-11-19T18:13:57.111Z,41.55
2022-11-19T18:16:26.213Z,42.23
2022-11-19T18:18:53.862Z,41.26
2022-11-19T18:21:22.845Z,41.04
2022-11-19T18:23:51.416Z,41.39
2022-11-19T18:26:20.289Z,41.77
2022-11-19T18:28:49.265Z,41.21
2022-11-19T18:31:21.989Z,41.58
2022-11-19T18:33:49.450Z,42.12
2022-11-19T18:36:16.660Z,41.75
2022-11-19T18:38:43.920Z,41.07
2022-11-19T18:41:11.997Z,41.25
2022-11-19T18:43:57.235Z,41.36
2022-11-19T18:46:23.820Z,41.22
2022-11-19T18:48:50.458Z,40.90
2022-11-19T18:51:16.953Z,41.11
2022-11-19T18:53:43.425Z,40.91
2022-11-19T18:56:15.954Z,40.92
2022-11-19T18:58:42.833Z,40.83
2022-11-19T19:01:09.512Z,41.13
2022-11-19T19:03:36.002Z,40.52
2022-11-19T19:06:03.718Z,40.82
2022-11-19T19:08:31.202Z,40.71
2022-11-19T19:11:17.365Z,41.79
2022-11-19T19:13:45.572Z,41.26
2022-11-19T19:16:13.079Z,41.32
2022-11-19T19:18:39.738Z,41.26
2022-11-19T19:21:17.624Z,40.60
2022-11-19T19:23:44.185Z,41.05
2022-11-19T19:26:13.043Z,40.58
2022-11-19T19:28:39.747Z,40.89
2022-11-19T19:31:06.385Z,41.06
2022-11-19T19:33:33.251Z,41.00
2022-11-19T19:36:03.074Z,40.87
2022-11-19T19:38:29.577Z,41.38
2022-11-19T19:41:03.862Z,40.98
2022-11-19T19:43:30.604Z,40.70
2022-11-19T19:46:03.849Z,40.33
2022-11-19T19:48:30.339Z,40.33
2022-11-19T19:50:57.258Z,40.42
2022-11-19T19:53:23.787Z,40.17
2022-11-19T19:55:50.291Z,40.30
2022-11-19T19:58:16.710Z,40.33
2022-11-19T20:00:43.298Z,40.00
2022-11-19T20:03:09.782Z,40.59
2022-11-19T20:05:36.206Z,40.89
2022-11-19T20:08:02.677Z,41.34
2022-11-19T20:10:29.130Z,41.54
2022-11-19T20:13:14.231Z,41.09
2022-11-19T20:15:41.173Z,40.82
2022-11-19T20:18:07.619Z,40.85
2022-11-19T20:20:34.078Z,40.86
2022-11-19T20:23:00.515Z,40.74
2022-11-19T20:25:26.964Z,40.52
2022-11-19T20:27:53.392Z,40.50
2022-11-19T20:30:19.931Z,40.16
2022-11-19T20:32:46.411Z,40.17
2022-11-19T20:35:12.842Z,40.47
2022-11-19T20:37:39.269Z,40.92
2022-11-19T20:40:06.275Z,40.86
2022-11-19T20:42:52.405Z,40.83
2022-11-19T20:45:18.867Z,41.12
2022-11-19T20:47:45.306Z,41.03
2022-11-19T20:50:12.043Z,40.80
2022-11-19T20:52:38.586Z,40.63
2022-11-19T20:55:07.001Z,40.73
2022-11-19T20:57:33.634Z,41.02
2022-11-19T21:00:00.445Z,40.84
2022-11-19T21:02:26.936Z,40.98
2022-11-19T21:04:53.415Z,41.40
2022-11-19T21:07:19.995Z,41.21
2022-11-19T21:09:46.862Z,40.64
2022-11-19T21:12:13.385Z,40.49
2022-11-19T21:14:39.885Z,40.57
2022-11-19T21:17:06.317Z,40.40
2022-11-19T21:19:32.777Z,40.98
2022-11-19T21:21:59.322Z,40.61
2022-11-19T21:24:25.843Z,40.62
2022-11-19T21:26:52.358Z,40.37
2022-11-19T21:29:18.984Z,40.25
2022-11-19T21:31:48.054Z,40.32
2022-11-19T21:34:22.542Z,40.97
2022-11-19T21:36:49.656Z,40.92
2022-11-19T21:39:17.423Z,40.48
2022-11-19T21:41:44.519Z,40.59
2022-11-19T21:44:13.289Z,41.23
2022-11-19T21:46:43.130Z,40.93
2022-11-19T21:49:09.872Z,41.02
2022-11-19T21:51:36.345Z,40.72
2022-11-19T21:54:02.884Z,40.66
2022-11-19T21:56:33.860Z,40.67
2022-11-19T21:59:04.632Z,40.64
2022-11-19T22:01:31.082Z,40.57
2022-11-19T22:03:57.509Z,40.62
2022-11-19T22:06:23.970Z,40.52
2022-11-19T22:08:50.458Z,40.35
2022-11-19T22:11:28.976Z,40.52
2022-11-19T22:14:02.761Z,41.17
2022-11-19T22:16:31.461Z,41.37
2022-11-19T22:18:57.909Z,41.71
2022-11-19T22:21:25.917Z,41.10
2022-11-19T22:23:52.856Z,40.59
2022-11-19T22:26:19.365Z,40.42
2022-11-19T22:28:45.851Z,40.44
2022-11-19T22:31:12.395Z,40.43
2022-11-19T22:33:40.179Z,40.60
2022-11-19T22:36:10.253Z,40.79
2022-11-19T22:38:38.220Z,40.94
2022-11-19T22:41:08.287Z,40.38
2022-11-19T22:43:35.735Z,40.62
2022-11-19T22:46:02.231Z,40.61
2022-11-19T22:48:30.075Z,41.21
2022-11-19T22:50:56.636Z,39.89
2022-11-19T22:53:23.845Z,40.03
2022-11-19T22:55:50.888Z,40.98
2022-11-19T22:58:17.465Z,40.40
